Bremen — C6JC3 — position and weather

sailwx.info

Track history (hours):
 
Tides and Currents Weather Stations Pressure Air Temp Water Temp Dewpoint Dewpoint Depression Visibility Wind Speed Wind Dir Waves Ship Positions

Bremen

Operator: Hapag-Lloyd Container Line

Last reported at 2019-Apr-20 23:06 UTC. Time now 2019-Apr-24 21:51 UTC.
Position N 19°20' W 066°18'.

Length 111.5 m; beam 17 m; draft 4.8 m.

Type: Ship. MMSI: 308429000.

Date/timePositionNaut miles runAvg speedWind from/ knotsBaromVisibWave heightAir tempDewpointWater temp
2019-Apr-20 23:06N 19°20' W 066°18'4713.9
2019-Apr-20 19:43N 18°48' W 066°55'313.8
2019-Apr-20 19:28N 18°46' W 066°57'  
2019-Apr-17 21:43N 09°38' W 079°45'313.6
2019-Apr-17 21:30N 09°36' W 079°46'714.0
2019-Apr-17 21:00N 09°30' W 079°51'713.3
2019-Apr-17 20:30N 09°24' W 079°54'3 4.9
2019-Apr-17 19:58N 09°22' W 079°54'0 0.0
2019-Apr-17 19:28N 09°22' W 079°54'0 0.0
2019-Apr-17 18:58N 09°22' W 079°54'0 0.0
2019-Apr-17 18:28N 09°22' W 079°54'0 0.0
2019-Apr-17 17:58N 09°22' W 079°54'0 0.0
2019-Apr-17 17:30N 09°22' W 079°54'0 0.0
2019-Apr-17 17:00N 09°22' W 079°54'0 0.0
2019-Apr-17 16:30N 09°22' W 079°54'0 0.0
2019-Apr-17 15:59N 09°22' W 079°54'0 0.0
2019-Apr-17 15:28N 09°22' W 079°54'0 0.0
2019-Apr-17 14:58N 09°22' W 079°54'0 0.0
2019-Apr-17 14:28N 09°22' W 079°54'0 0.0
2019-Apr-17 14:00N 09°22' W 079°54'0 0.0
2019-Apr-17 13:29N 09°22' W 079°54'0 0.0
2019-Apr-17 12:58N 09°22' W 079°54'0 0.0
2019-Apr-17 12:28N 09°22' W 079°54'0 0.0
2019-Apr-17 11:58N 09°22' W 079°54'0 0.0
2019-Apr-17 11:28N 09°22' W 079°54'0 0.0
2019-Apr-17 11:00N 09°22' W 079°54'3 5.5
2019-Apr-17 10:30N 09°24' W 079°54'1 1.1
2019-Apr-17 10:00N 09°24' W 079°53'0 0.5
2019-Apr-17 09:26N 09°24' W 079°53'0 0.2
2019-Apr-17 08:58N 09°24' W 079°53'0 0.1
2019-Apr-17 08:30N 09°24' W 079°53'0 0.0
2019-Apr-17 08:00N 09°24' W 079°53'0 0.1
2019-Apr-17 07:29N 09°24' W 079°53'0 0.0
2019-Apr-17 07:00N 09°24' W 079°53'0 0.1
2019-Apr-17 06:31N 09°24' W 079°53'1 2.0
2019-Apr-17 06:00N 09°24' W 079°54'5 9.5
2019-Apr-17 05:30N 09°20' W 079°55'3 5.8
2019-Apr-17 05:00N 09°17' W 079°55'0 0.4
2019-Apr-17 04:30N 09°16' W 079°55'0 0.9
2019-Apr-17 04:00N 09°16' W 079°55'3 6.7
2019-Apr-17 03:30N 09°13' W 079°55'  
Track history (hours):
 
Tides and Currents Weather Stations Pressure Air Temp Water Temp Dewpoint Dewpoint Depression Visibility Wind Speed Wind Dir Waves Ship Positions

Bremen

Operator: Hapag-Lloyd Container Line

Last reported at 2019-Apr-20 23:06 UTC. Time now 2019-Apr-24 21:51 UTC.
Position N 19°20' W 066°18'.

Length 111.5 m; beam 17 m; draft 4.8 m.

Type: Ship. MMSI: 308429000.

Date/timePositionNaut miles runAvg speedWind from/ knotsBaromVisibWave heightAir tempDewpointWater temp
2019-Apr-20 23:06N 19°20' W 066°18'4713.9
2019-Apr-20 19:43N 18°48' W 066°55'313.8
2019-Apr-20 19:28N 18°46' W 066°57'  
2019-Apr-17 21:43N 09°38' W 079°45'313.6
2019-Apr-17 21:30N 09°36' W 079°46'714.0
2019-Apr-17 21:00N 09°30' W 079°51'713.3
2019-Apr-17 20:30N 09°24' W 079°54'3 4.9
2019-Apr-17 19:58N 09°22' W 079°54'0 0.0
2019-Apr-17 19:28N 09°22' W 079°54'0 0.0
2019-Apr-17 18:58N 09°22' W 079°54'0 0.0
2019-Apr-17 18:28N 09°22' W 079°54'0 0.0
2019-Apr-17 17:58N 09°22' W 079°54'0 0.0
2019-Apr-17 17:30N 09°22' W 079°54'0 0.0
2019-Apr-17 17:00N 09°22' W 079°54'0 0.0
2019-Apr-17 16:30N 09°22' W 079°54'0 0.0
2019-Apr-17 15:59N 09°22' W 079°54'0 0.0
2019-Apr-17 15:28N 09°22' W 079°54'0 0.0
2019-Apr-17 14:58N 09°22' W 079°54'0 0.0
2019-Apr-17 14:28N 09°22' W 079°54'0 0.0
2019-Apr-17 14:00N 09°22' W 079°54'0 0.0
2019-Apr-17 13:29N 09°22' W 079°54'0 0.0
2019-Apr-17 12:58N 09°22' W 079°54'0 0.0
2019-Apr-17 12:28N 09°22' W 079°54'0 0.0
2019-Apr-17 11:58N 09°22' W 079°54'0 0.0
2019-Apr-17 11:28N 09°22' W 079°54'0 0.0
2019-Apr-17 11:00N 09°22' W 079°54'3 5.5
2019-Apr-17 10:30N 09°24' W 079°54'1 1.1
2019-Apr-17 10:00N 09°24' W 079°53'0 0.5
2019-Apr-17 09:26N 09°24' W 079°53'0 0.2
2019-Apr-17 08:58N 09°24' W 079°53'0 0.1
2019-Apr-17 08:30N 09°24' W 079°53'0 0.0
2019-Apr-17 08:00N 09°24' W 079°53'0 0.1
2019-Apr-17 07:29N 09°24' W 079°53'0 0.0
2019-Apr-17 07:00N 09°24' W 079°53'0 0.1
2019-Apr-17 06:31N 09°24' W 079°53'1 2.0
2019-Apr-17 06:00N 09°24' W 079°54'5 9.5
2019-Apr-17 05:30N 09°20' W 079°55'3 5.8
2019-Apr-17 05:00N 09°17' W 079°55'0 0.4
2019-Apr-17 04:30N 09°16' W 079°55'0 0.9
2019-Apr-17 04:00N 09°16' W 079°55'3 6.7
2019-Apr-17 03:30N 09°13' W 079°55'  

Dump ship's entire track history